createdAt,value
2018-08-23T00:01:16.821Z,100110.98
2018-08-23T00:03:44.568Z,100104.14
2018-08-23T00:06:12.164Z,100096.17
2018-08-23T00:08:44.304Z,100089.51
2018-08-23T00:11:12.043Z,100091.91
2018-08-23T00:13:44.953Z,100090.95
2018-08-23T00:16:12.792Z,100102.45
2018-08-23T00:18:40.442Z,100100.90
2018-08-23T00:21:13.729Z,100107.98
2018-08-23T00:23:44.484Z,100107.29
2018-08-23T00:26:16.038Z,100112.31
2018-08-23T00:28:43.800Z,100117.25
2018-08-23T00:31:11.522Z,100122.18
2018-08-23T00:33:39.192Z,100111.23
2018-08-23T00:36:07.036Z,100110.16
2018-08-23T00:38:34.691Z,100109.65
2018-08-23T00:41:02.345Z,100108.02
2018-08-23T00:43:29.997Z,100129.44
2018-08-23T00:46:00.548Z,100136.22
2018-08-23T00:48:28.210Z,100142.33
2018-08-23T00:50:57.197Z,100143.06
2018-08-23T00:53:25.130Z,100156.09
2018-08-23T00:56:28.668Z,100141.95
2018-08-23T00:58:59.826Z,100148.02
2018-08-23T01:01:27.507Z,100152.88
2018-08-23T01:03:55.161Z,100164.23
2018-08-23T01:06:24.281Z,100149.57
2018-08-23T01:08:51.938Z,100150.81
2018-08-23T01:11:19.595Z,100163.84
2018-08-23T01:13:47.295Z,100164.66
2018-08-23T01:16:15.422Z,100167.20
2018-08-23T01:18:43.133Z,100175.33
2018-08-23T01:21:11.164Z,100170.42
2018-08-23T01:23:39.358Z,100170.77
2018-08-23T01:26:07.955Z,100175.59
2018-08-23T01:28:35.658Z,100181.91
2018-08-23T01:31:19.939Z,100184.39
2018-08-23T01:33:47.689Z,100172.40
2018-08-23T01:36:19.821Z,100193.03
2018-08-23T01:38:47.493Z,100198.37
2018-08-23T01:41:15.166Z,100214.55
2018-08-23T01:43:43.296Z,100221.50
2018-08-23T01:46:11.089Z,100224.73
2018-08-23T01:48:39.719Z,100229.77
2018-08-23T01:51:07.367Z,100234.41
2018-08-23T01:53:37.742Z,100248.73
2018-08-23T01:56:06.506Z,100244.67
2018-08-23T01:58:34.895Z,100253.26
2018-08-23T02:01:12.416Z,100257.49
2018-08-23T02:03:40.082Z,100281.39
2018-08-23T02:06:07.801Z,100291.80
2018-08-23T02:08:35.449Z,100313.89
2018-08-23T02:11:03.181Z,100312.08
2018-08-23T02:13:30.852Z,100318.62
2018-08-23T02:16:01.611Z,100315.38
2018-08-23T02:18:29.514Z,100318.52
2018-08-23T02:21:11.908Z,100312.62
2018-08-23T02:23:43.634Z,100311.94
2018-08-23T02:26:11.439Z,100319.84
2018-08-23T02:28:39.248Z,100340.64
2018-08-23T02:31:07.099Z,100326.55
2018-08-23T02:33:34.760Z,100335.99
2018-08-23T02:36:21.776Z,100342.92
2018-08-23T02:38:58.885Z,100346.36
2018-08-23T02:41:26.606Z,100358.02
2018-08-23T02:43:54.281Z,100363.91
2018-08-23T02:46:21.957Z,100372.00
2018-08-23T02:48:49.645Z,100394.89
2018-08-23T02:51:17.381Z,100409.00
2018-08-23T02:53:46.319Z,100442.34
2018-08-23T02:56:16.428Z,100454.94
2018-08-23T02:59:05.717Z,100428.95
2018-08-23T03:01:36.621Z,100424.41
2018-08-23T03:04:27.953Z,100419.44
2018-08-23T03:06:58.532Z,100419.00
2018-08-23T03:09:28.967Z,100410.22
2018-08-23T03:11:58.526Z,100422.96
2018-08-23T03:14:27.071Z,100430.81
2018-08-23T03:17:37.534Z,100428.25
2018-08-23T03:20:24.131Z,100434.61
2018-08-23T03:22:55.656Z,100436.64
2018-08-23T03:25:24.586Z,100444.62
2018-08-23T03:27:52.390Z,100448.70
2018-08-23T03:30:20.637Z,100460.37
2018-08-23T03:32:48.406Z,100461.34
2018-08-23T03:35:16.118Z,100471.82
2018-08-23T03:37:43.784Z,100479.72
2018-08-23T03:40:12.418Z,100476.55
2018-08-23T03:42:40.197Z,100482.63
2018-08-23T03:45:14.086Z,100481.10
2018-08-23T03:47:47.297Z,100489.22
2018-08-23T03:50:14.965Z,100498.34
2018-08-23T03:52:55.579Z,100497.41
2018-08-23T03:55:25.252Z,100505.68
2018-08-23T03:58:07.558Z,100487.45
2018-08-23T04:00:49.529Z,100497.98
2018-08-23T04:03:19.330Z,100502.88
2018-08-23T04:05:47.149Z,100510.90
2018-08-23T04:08:14.849Z,100506.33
2018-08-23T04:10:42.519Z,100510.90
2018-08-23T04:13:10.197Z,100506.14
2018-08-23T04:15:37.902Z,100512.18
2018-08-23T04:18:10.274Z,100512.50
2018-08-23T04:20:48.012Z,100510.41
2018-08-23T04:23:15.784Z,100509.78
2018-08-23T04:25:43.444Z,100521.73
2018-08-23T04:28:11.213Z,100526.95
2018-08-23T04:30:38.852Z,100530.17
2018-08-23T04:33:06.521Z,100525.65
2018-08-23T04:35:34.354Z,100537.47
2018-08-23T04:38:02.171Z,100538.66
2018-08-23T04:40:29.921Z,100541.86
2018-08-23T04:42:57.671Z,100550.42
2018-08-23T04:45:28.621Z,100547.42
2018-08-23T04:48:01.806Z,100559.66
2018-08-23T04:50:29.477Z,100548.10
2018-08-23T04:52:57.153Z,100548.11
2018-08-23T04:55:25.627Z,100545.91
2018-08-23T04:57:53.333Z,100546.10
2018-08-23T05:00:20.975Z,100555.36
2018-08-23T05:02:48.628Z,100560.35
2018-08-23T05:05:16.304Z,100562.40
2018-08-23T05:07:43.973Z,100562.67
2018-08-23T05:10:11.656Z,100566.30
2018-08-23T05:12:39.299Z,100562.47
2018-08-23T05:15:07.030Z,100565.23
2018-08-23T05:17:34.760Z,100562.94
2018-08-23T05:20:02.421Z,100562.41
2018-08-23T05:22:30.077Z,100560.73
2018-08-23T05:25:14.620Z,100534.77
2018-08-23T05:27:59.026Z,100571.53
2018-08-23T05:30:27.903Z,100572.98
2018-08-23T05:33:00.082Z,100580.47
2018-08-23T05:35:29.142Z,100581.45
2018-08-23T05:37:56.854Z,100590.30
2018-08-23T05:40:24.517Z,100596.23
2018-08-23T05:42:53.553Z,100598.16
2018-08-23T05:45:35.310Z,100607.33
2018-08-23T05:48:19.078Z,100607.91
2018-08-23T05:50:46.768Z,100603.91
2018-08-23T05:53:15.760Z,100606.61
2018-08-23T05:55:43.948Z,100601.77
2018-08-23T05:58:18.026Z,100602.48
2018-08-23T06:00:45.738Z,100613.67
2018-08-23T06:03:14.506Z,100618.54
2018-08-23T06:05:42.222Z,100618.11
2018-08-23T06:08:10.225Z,100621.19
2018-08-23T06:10:37.869Z,100623.58
2018-08-23T06:13:05.633Z,100629.17
2018-08-23T06:15:37.803Z,100633.20
2018-08-23T06:18:05.911Z,100652.98
2018-08-23T06:20:33.613Z,100639.65
2018-08-23T06:23:01.336Z,100635.56
2018-08-23T06:25:29.087Z,100641.42
2018-08-23T06:27:56.753Z,100654.98
2018-08-23T06:30:24.426Z,100654.98
2018-08-23T06:32:56.735Z,100651.50
2018-08-23T06:35:25.649Z,100655.08
2018-08-23T06:37:56.232Z,100663.63
2018-08-23T06:40:23.934Z,100663.83
2018-08-23T06:43:01.806Z,100664.59
2018-08-23T06:45:29.480Z,100663.72
2018-08-23T06:48:03.784Z,100663.20
2018-08-23T06:50:31.520Z,100675.95
2018-08-23T06:52:59.206Z,100674.11
2018-08-23T06:55:30.269Z,100677.48
2018-08-23T06:57:58.769Z,100676.96
2018-08-23T07:00:26.813Z,100684.73
2018-08-23T07:02:54.759Z,100693.74
2018-08-23T07:05:22.611Z,100688.29
2018-08-23T07:07:50.446Z,100697.36
2018-08-23T07:10:18.121Z,100552.70
2018-08-23T07:12:45.812Z,100699.60
2018-08-23T07:15:13.628Z,100716.98
2018-08-23T07:17:41.424Z,100718.17
2018-08-23T07:20:11.042Z,100717.72
2018-08-23T07:22:38.720Z,100722.22
2018-08-23T07:25:10.241Z,100729.42
2018-08-23T07:27:37.904Z,100723.38
2018-08-23T07:30:06.708Z,100728.97
2018-08-23T07:32:38.963Z,100724.62
2018-08-23T07:35:08.566Z,100724.42
2018-08-23T07:37:37.628Z,100737.73
2018-08-23T07:40:17.274Z,100739.33
2018-08-23T07:42:46.140Z,100747.92
2018-08-23T07:45:13.956Z,100750.23
2018-08-23T07:47:43.133Z,100754.78
2018-08-23T07:50:10.823Z,100757.75
2018-08-23T07:52:40.754Z,100753.48
2018-08-23T07:55:08.529Z,100755.68
2018-08-23T07:57:36.949Z,100761.00
2018-08-23T08:00:40.339Z,100762.73
2018-08-23T08:03:09.136Z,100761.38
2018-08-23T08:05:38.229Z,100752.75
2018-08-23T08:08:06.682Z,100755.68
2018-08-23T08:10:39.433Z,100755.80
2018-08-23T08:13:07.083Z,100753.75
2018-08-23T08:15:34.844Z,100745.76
2018-08-23T08:18:07.420Z,100750.56
2018-08-23T08:20:35.078Z,100752.40
2018-08-23T08:23:02.781Z,100742.72
2018-08-23T08:25:31.752Z,100751.44
2018-08-23T08:27:59.457Z,100752.40
2018-08-23T08:30:39.032Z,100751.26
2018-08-23T08:33:07.189Z,100758.76
2018-08-23T08:35:34.852Z,100758.02
2018-08-23T08:38:02.549Z,100744.55
2018-08-23T08:40:30.264Z,100755.19
2018-08-23T08:42:57.937Z,100757.76
2018-08-23T08:45:27.159Z,100763.66
2018-08-23T08:48:04.772Z,100759.84
2018-08-23T08:50:37.467Z,100767.27
2018-08-23T08:53:05.281Z,100766.86
2018-08-23T08:55:32.947Z,100761.05
2018-08-23T08:58:00.632Z,100755.25
2018-08-23T09:00:33.096Z,100756.44
2018-08-23T09:03:00.794Z,100758.28
2018-08-23T09:05:28.612Z,100756.80
2018-08-23T09:07:56.265Z,100751.44
2018-08-23T09:10:23.915Z,100764.17
2018-08-23T09:12:51.691Z,100762.84
2018-08-23T09:15:19.350Z,100757.62
2018-08-23T09:17:47.031Z,100762.02
2018-08-23T09:20:16.051Z,100779.25
2018-08-23T09:22:49.303Z,100777.45
2018-08-23T09:25:22.599Z,100778.33
2018-08-23T09:27:50.688Z,100784.13
2018-08-23T09:30:24.104Z,100780.34
2018-08-23T09:32:51.748Z,100782.95
2018-08-23T09:35:20.148Z,100783.22
2018-08-23T09:37:52.366Z,100782.27
2018-08-23T09:40:20.809Z,100785.17
2018-08-23T09:42:48.468Z,100781.34
2018-08-23T09:45:17.262Z,100778.58
2018-08-23T09:47:44.942Z,100770.31
2018-08-23T09:50:12.651Z,100784.36
2018-08-23T09:52:43.134Z,100768.58
2018-08-23T09:55:11.945Z,100767.09
2018-08-23T09:57:39.749Z,100782.13
2018-08-23T10:00:13.347Z,100770.70
2018-08-23T10:02:46.649Z,100772.19
2018-08-23T10:05:19.859Z,100762.35
2018-08-23T10:07:53.029Z,100775.19
2018-08-23T10:10:26.270Z,100777.27
2018-08-23T10:12:59.483Z,100775.10
2018-08-23T10:15:32.622Z,100773.34
2018-08-23T10:18:05.786Z,100777.81
2018-08-23T10:20:45.582Z,100792.28
2018-08-23T10:23:21.283Z,100784.17
2018-08-23T10:25:50.138Z,100787.03
2018-08-23T10:28:18.965Z,100786.28
2018-08-23T10:30:47.077Z,100786.91
2018-08-23T10:33:14.923Z,100798.37
2018-08-23T10:35:49.626Z,100795.55
2018-08-23T10:38:18.773Z,100801.77
2018-08-23T10:40:47.568Z,100799.34
2018-08-23T10:43:15.741Z,100810.30
2018-08-23T10:45:43.746Z,100810.29
2018-08-23T10:48:15.061Z,100819.55
2018-08-23T10:50:43.156Z,100818.92
2018-08-23T10:53:10.841Z,100818.65
2018-08-23T10:55:38.502Z,100817.16
2018-08-23T10:58:06.215Z,100821.50
2018-08-23T11:00:33.908Z,100827.73
2018-08-23T11:03:01.586Z,100825.77
2018-08-23T11:05:29.253Z,100830.84
2018-08-23T11:08:02.427Z,100829.28
2018-08-23T11:10:35.591Z,100830.77
2018-08-23T11:13:08.822Z,100834.62
2018-08-23T11:15:36.474Z,100827.81
2018-08-23T11:18:09.823Z,100833.61
2018-08-23T11:20:42.992Z,100836.34
2018-08-23T11:23:10.718Z,100833.47
2018-08-23T11:25:38.377Z,100827.21
2018-08-23T11:28:11.624Z,100838.11
2018-08-23T11:30:39.276Z,100829.88
2018-08-23T11:33:08.449Z,100824.33
2018-08-23T11:35:36.333Z,100800.84
2018-08-23T11:38:04.755Z,100827.65
2018-08-23T11:40:32.597Z,100826.31
2018-08-23T11:43:00.505Z,100828.52
2018-08-23T11:45:28.192Z,100821.25
2018-08-23T11:47:56.236Z,100835.19
2018-08-23T11:50:23.954Z,100833.06
2018-08-23T11:52:51.630Z,100835.89
2018-08-23T11:55:19.291Z,100827.53
2018-08-23T11:57:47.238Z,100822.17
2018-08-23T12:00:15.058Z,100826.95
2018-08-23T12:02:43.552Z,100825.14
2018-08-23T12:05:12.685Z,100827.36
2018-08-23T12:07:57.002Z,100835.38
2018-08-23T12:10:24.816Z,100830.67
2018-08-23T12:12:53.560Z,100825.27
2018-08-23T12:15:31.310Z,100829.47
2018-08-23T12:17:59.338Z,100836.31
2018-08-23T12:20:27.049Z,100842.36
2018-08-23T12:22:54.758Z,100835.03
2018-08-23T12:25:22.458Z,100841.72
2018-08-23T12:27:57.752Z,100842.20
2018-08-23T12:30:25.449Z,100846.08
2018-08-23T12:32:53.270Z,100847.89
2018-08-23T12:35:21.074Z,100853.05
2018-08-23T12:38:02.311Z,100851.27
2018-08-23T12:40:36.741Z,100855.56
2018-08-23T12:43:07.943Z,100853.93
2018-08-23T12:45:40.854Z,100849.75
2018-08-23T12:48:09.722Z,100849.22
2018-08-23T12:50:37.418Z,100841.77
2018-08-23T12:53:05.243Z,100849.64
2018-08-23T12:55:32.989Z,100848.59
2018-08-23T12:58:00.838Z,100842.89
2018-08-23T13:00:28.595Z,100840.09
2018-08-23T13:02:56.409Z,100837.60
2018-08-23T13:05:23.983Z,100840.91
2018-08-23T13:07:51.674Z,100843.07
2018-08-23T13:10:19.426Z,100842.72
2018-08-23T13:12:47.104Z,100842.02
2018-08-23T13:15:14.891Z,100843.87
2018-08-23T13:17:42.549Z,100842.72
2018-08-23T13:20:10.255Z,100838.23
2018-08-23T13:22:39.510Z,100841.95
2018-08-23T13:25:08.843Z,100839.84
2018-08-23T13:27:36.677Z,100834.34
2018-08-23T13:30:04.568Z,100842.02
2018-08-23T13:32:32.865Z,100840.84
2018-08-23T13:35:00.558Z,100840.25
2018-08-23T13:37:29.099Z,100834.91
2018-08-23T13:39:56.928Z,100834.61
2018-08-23T13:42:24.638Z,100826.64
2018-08-23T13:44:52.489Z,100815.94
2018-08-23T13:47:20.187Z,100817.97
2018-08-23T13:49:48.109Z,100822.33
2018-08-23T13:52:15.921Z,100827.05
2018-08-23T13:54:44.742Z,100834.72
2018-08-23T13:57:12.548Z,100837.34
2018-08-23T13:59:40.386Z,100839.73
2018-08-23T14:02:08.127Z,100845.77
2018-08-23T14:04:35.917Z,100846.41
2018-08-23T14:07:03.937Z,100836.41
2018-08-23T14:09:31.688Z,100836.70
2018-08-23T14:11:59.424Z,100835.84
2018-08-23T14:14:27.764Z,100838.09
2018-08-23T14:16:55.468Z,100839.78
2018-08-23T14:19:23.151Z,100836.46
2018-08-23T14:21:50.881Z,100833.44
2018-08-23T14:24:18.844Z,100821.39
2018-08-23T14:26:46.558Z,100809.36
2018-08-23T14:29:14.461Z,100813.42
2018-08-23T14:31:42.423Z,100812.03
2018-08-23T14:34:10.243Z,100813.64
2018-08-23T14:36:37.990Z,100814.68
2018-08-23T14:39:08.526Z,100824.74
2018-08-23T14:41:36.589Z,100815.16
2018-08-23T14:44:04.561Z,100812.48
2018-08-23T14:46:37.762Z,100807.13
2018-08-23T14:49:05.450Z,100808.69
2018-08-23T14:51:33.148Z,100817.54
2018-08-23T14:54:00.958Z,100823.05
2018-08-23T14:56:34.437Z,100819.58
2018-08-23T14:59:02.197Z,100810.80
2018-08-23T15:01:29.916Z,100812.87
2018-08-23T15:03:57.644Z,100812.23
2018-08-23T15:06:25.323Z,100803.12
2018-08-23T15:08:52.996Z,100801.13
2018-08-23T15:11:20.755Z,100765.38
2018-08-23T15:13:48.447Z,100801.99
2018-08-23T15:16:16.252Z,100811.84
2018-08-23T15:18:44.042Z,100810.02
2018-08-23T15:21:11.754Z,100807.05
2018-08-23T15:23:39.617Z,100803.67
2018-08-23T15:26:07.473Z,100806.35
2018-08-23T15:28:35.111Z,100807.53
2018-08-23T15:31:02.927Z,100813.88
2018-08-23T15:33:30.668Z,100801.05
2018-08-23T15:35:58.382Z,100798.72
2018-08-23T15:38:26.127Z,100798.38
2018-08-23T15:40:53.895Z,100801.64
2018-08-23T15:43:21.589Z,100806.01
2018-08-23T15:45:49.271Z,100810.55
2018-08-23T15:48:16.998Z,100813.05
2018-08-23T15:50:44.709Z,100806.41
2018-08-23T15:53:12.559Z,100811.20
2018-08-23T15:55:40.513Z,100801.05
2018-08-23T15:58:08.165Z,100799.92
2018-08-23T16:00:38.274Z,100813.18
2018-08-23T16:03:06.656Z,100806.14
2018-08-23T16:05:34.710Z,100805.39
2018-08-23T16:08:02.455Z,100797.98
2018-08-23T16:10:30.221Z,100803.52
2018-08-23T16:12:57.919Z,100801.48
2018-08-23T16:15:25.954Z,100797.23
2018-08-23T16:17:59.290Z,100798.75
2018-08-23T16:20:32.480Z,100768.50
2018-08-23T16:23:00.298Z,100799.80
2018-08-23T16:25:28.026Z,100791.48
2018-08-23T16:27:55.751Z,100791.16
2018-08-23T16:30:23.571Z,100785.06
2018-08-23T16:32:51.293Z,100676.84
2018-08-23T16:35:18.991Z,100776.20
2018-08-23T16:37:46.714Z,100786.00
2018-08-23T16:40:19.986Z,100785.06
2018-08-23T16:42:47.761Z,100789.23
2018-08-23T16:45:15.438Z,100784.42
2018-08-23T16:47:43.106Z,100776.13
2018-08-23T16:50:10.846Z,100781.34
2018-08-23T16:52:38.560Z,100775.27
2018-08-23T16:55:06.276Z,100778.59
2018-08-23T16:57:33.978Z,100774.41
2018-08-23T17:00:01.679Z,100777.54
2018-08-23T17:02:29.362Z,100773.47
2018-08-23T17:04:57.067Z,100779.28
2018-08-23T17:07:24.785Z,100782.14
2018-08-23T17:09:52.450Z,100773.25
2018-08-23T17:12:20.449Z,100773.53
2018-08-23T17:14:48.122Z,100762.84
2018-08-23T17:17:34.816Z,100762.97
2018-08-23T17:20:02.593Z,100770.63
2018-08-23T17:22:30.501Z,100768.54
2018-08-23T17:24:58.258Z,100767.78
2018-08-23T17:27:26.275Z,100769.42
2018-08-23T17:29:53.962Z,100767.31
2018-08-23T17:32:21.684Z,100763.22
2018-08-23T17:34:49.418Z,100758.50
2018-08-23T17:37:17.164Z,100748.10
2018-08-23T17:39:44.916Z,100735.37
2018-08-23T17:42:12.670Z,100736.62
2018-08-23T17:44:40.358Z,100745.09
2018-08-23T17:47:08.188Z,100752.24
2018-08-23T17:49:35.883Z,100751.20
2018-08-23T17:52:03.665Z,100762.96
2018-08-23T17:54:31.388Z,100763.09
2018-08-23T17:56:59.105Z,100757.55
2018-08-23T17:59:26.818Z,100748.97
2018-08-23T18:01:54.566Z,100747.12
2018-08-23T18:04:22.319Z,100752.05
2018-08-23T18:06:50.030Z,100747.83
2018-08-23T18:09:17.776Z,100750.08
2018-08-23T18:11:45.553Z,100752.82
2018-08-23T18:14:13.260Z,100741.79
2018-08-23T18:16:46.578Z,100744.81
2018-08-23T18:19:14.388Z,100762.52
2018-08-23T18:21:42.349Z,100754.79
2018-08-23T18:24:10.132Z,100750.50
2018-08-23T18:26:37.810Z,100755.16
2018-08-23T18:29:05.637Z,100749.91
2018-08-23T18:31:33.992Z,100747.88
2018-08-23T18:34:01.761Z,100751.03
2018-08-23T18:36:29.481Z,100741.73
2018-08-23T18:38:57.171Z,100735.29
2018-08-23T18:41:24.830Z,100730.45
2018-08-23T18:43:52.504Z,100732.28
2018-08-23T18:46:20.265Z,100738.66
2018-08-23T18:48:47.926Z,100736.07
2018-08-23T18:51:15.602Z,100745.37
2018-08-23T18:53:43.341Z,100747.09
2018-08-23T18:56:11.104Z,100755.52
2018-08-23T18:58:38.831Z,100746.25
2018-08-23T19:01:06.530Z,100727.75
2018-08-23T19:03:34.212Z,100734.77
2018-08-23T19:06:01.905Z,100741.52
2018-08-23T19:08:29.641Z,100739.09
2018-08-23T19:10:57.309Z,100744.81
2018-08-23T19:13:25.026Z,100735.74
2018-08-23T19:15:58.192Z,100738.66
2018-08-23T19:18:25.999Z,100734.95
2018-08-23T19:20:53.637Z,100735.89
2018-08-23T19:23:21.356Z,100733.05
2018-08-23T19:25:49.032Z,100739.12
2018-08-23T19:28:16.708Z,100731.66
2018-08-23T19:30:44.450Z,100728.28
2018-08-23T19:33:12.097Z,100731.66
2018-08-23T19:35:39.783Z,100726.33
2018-08-23T19:38:07.478Z,100720.04
2018-08-23T19:40:35.144Z,100709.30
2018-08-23T19:43:02.804Z,100711.83
2018-08-23T19:45:36.166Z,100721.32
2018-08-23T19:48:03.879Z,100717.20
2018-08-23T19:50:31.577Z,100702.71
2018-08-23T19:52:59.242Z,100703.03
2018-08-23T19:55:26.919Z,100699.56
2018-08-23T19:57:54.591Z,100699.61
2018-08-23T20:00:22.299Z,100695.50
2018-08-23T20:02:49.960Z,100694.68
2018-08-23T20:05:17.638Z,100686.31
2018-08-23T20:07:45.331Z,100691.86
2018-08-23T20:10:12.984Z,100692.22
2018-08-23T20:12:40.666Z,100692.41
2018-08-23T20:15:08.394Z,100696.16
2018-08-23T20:17:36.059Z,100689.30
2018-08-23T20:20:03.807Z,100691.50
2018-08-23T20:22:31.515Z,100693.02
2018-08-23T20:24:59.265Z,100686.98
2018-08-23T20:27:26.917Z,100685.33
2018-08-23T20:29:54.577Z,100684.50
2018-08-23T20:32:22.355Z,100678.27
2018-08-23T20:34:49.998Z,100669.91
2018-08-23T20:37:17.718Z,100664.72
2018-08-23T20:39:45.458Z,100661.28
2018-08-23T20:42:13.086Z,100659.95
2018-08-23T20:44:40.769Z,100658.65
2018-08-23T20:47:08.513Z,100652.22
2018-08-23T20:49:36.186Z,100644.48
2018-08-23T20:52:03.972Z,100640.30
2018-08-23T20:54:31.640Z,100636.47
2018-08-23T20:56:59.309Z,100632.77
2018-08-23T20:59:27.012Z,100635.42
2018-08-23T21:01:54.683Z,100622.64
2018-08-23T21:04:22.415Z,100623.97
2018-08-23T21:06:50.104Z,100617.17
2018-08-23T21:09:17.785Z,100610.83
2018-08-23T21:11:45.458Z,100610.33
2018-08-23T21:14:13.117Z,100604.88
2018-08-23T21:16:40.800Z,100612.25
2018-08-23T21:19:08.629Z,100616.46
2018-08-23T21:21:36.280Z,100622.85
2018-08-23T21:24:03.951Z,100627.61
2018-08-23T21:26:31.618Z,100627.70
2018-08-23T21:28:59.496Z,100633.73
2018-08-23T21:31:27.156Z,100630.27
2018-08-23T21:33:54.836Z,100631.16
2018-08-23T21:36:22.506Z,100632.58
2018-08-23T21:38:50.250Z,100632.84
2018-08-23T21:41:17.934Z,100587.62
2018-08-23T21:43:45.777Z,100628.87
2018-08-23T21:46:13.455Z,100630.78
2018-08-23T21:48:41.126Z,100619.47
2018-08-23T21:51:08.863Z,100610.12
2018-08-23T21:53:36.566Z,100611.63
2018-08-23T21:56:04.237Z,100605.77
2018-08-23T21:58:31.905Z,100597.52
2018-08-23T22:01:05.402Z,100586.81
2018-08-23T22:03:33.265Z,100582.20
2018-08-23T22:06:00.945Z,100584.41
2018-08-23T22:08:28.593Z,100580.42
2018-08-23T22:10:56.284Z,100570.66
2018-08-23T22:13:23.957Z,100557.28
2018-08-23T22:15:51.635Z,100563.20
2018-08-23T22:18:19.799Z,100559.77
2018-08-23T22:20:47.443Z,100553.99
2018-08-23T22:23:15.153Z,100563.34
2018-08-23T22:25:42.828Z,100553.36
2018-08-23T22:28:10.680Z,100540.88
2018-08-23T22:30:39.425Z,100548.05
2018-08-23T22:33:07.843Z,100545.34
2018-08-23T22:35:35.530Z,100533.02
2018-08-23T22:38:03.286Z,100536.87
2018-08-23T22:40:31.122Z,100525.10
2018-08-23T22:42:58.794Z,100518.29
2018-08-23T22:45:26.518Z,100520.61
2018-08-23T22:47:54.183Z,100517.30
2018-08-23T22:50:21.852Z,100520.05
2018-08-23T22:52:49.623Z,100514.64
2018-08-23T22:55:17.340Z,100510.38
2018-08-23T22:57:45.108Z,100505.95
2018-08-23T23:00:12.769Z,100503.81
2018-08-23T23:02:40.946Z,100494.20
2018-08-23T23:05:09.418Z,100499.62
2018-08-23T23:07:37.161Z,100504.11
2018-08-23T23:10:05.230Z,100506.36
2018-08-23T23:12:33.896Z,100506.39
2018-08-23T23:15:05.601Z,100505.32
2018-08-23T23:17:33.358Z,100504.51
2018-08-23T23:20:01.151Z,100499.97
2018-08-23T23:22:28.876Z,100496.74
2018-08-23T23:25:02.221Z,100505.70
2018-08-23T23:27:30.199Z,100504.56
2018-08-23T23:29:58.221Z,100499.53
2018-08-23T23:32:25.882Z,100498.17
2018-08-23T23:34:53.932Z,100496.73
2018-08-23T23:37:21.727Z,100495.36
2018-08-23T23:39:49.490Z,100489.94
2018-08-23T23:42:17.177Z,100492.58
2018-08-23T23:44:44.919Z,100487.08
2018-08-23T23:47:12.607Z,100484.70
2018-08-23T23:49:40.396Z,100482.14
2018-08-23T23:52:08.098Z,100357.34
2018-08-23T23:54:35.849Z,100467.42
2018-08-23T23:57:03.577Z,100460.41
2018-08-23T23:59:31.271Z,100455.46
